sensor_id;sensor_type;location;lat;lon;timestamp;P1;durP1;ratioP1;P2;durP2;ratioP2
11675;SDS011;5894;42.768;23.404;2023-04-15T00:02:27;9.03;;;4.90;;
11675;SDS011;5894;42.768;23.404;2023-04-15T00:04:53;11.77;;;5.07;;
11675;SDS011;5894;42.768;23.404;2023-04-15T00:07:20;7.13;;;4.70;;
11675;SDS011;5894;42.768;23.404;2023-04-15T00:09:47;6.70;;;4.23;;
11675;SDS011;5894;42.768;23.404;2023-04-15T00:12:14;6.13;;;3.70;;
11675;SDS011;5894;42.768;23.404;2023-04-15T00:14:40;7.63;;;4.23;;
11675;SDS011;5894;42.768;23.404;2023-04-15T00:17:07;7.67;;;3.97;;
11675;SDS011;5894;42.768;23.404;2023-04-15T00:19:35;6.20;;;3.80;;
11675;SDS011;5894;42.768;23.404;2023-04-15T00:22:02;6.73;;;4.33;;
11675;SDS011;5894;42.768;23.404;2023-04-15T00:24:29;8.03;;;4.30;;
11675;SDS011;5894;42.768;23.404;2023-04-15T00:26:56;7.03;;;4.17;;
11675;SDS011;5894;42.768;23.404;2023-04-15T00:29:24;8.47;;;4.03;;
11675;SDS011;5894;42.768;23.404;2023-04-15T00:31:51;6.23;;;4.00;;
11675;SDS011;5894;42.768;23.404;2023-04-15T00:34:17;5.20;;;3.47;;
11675;SDS011;5894;42.768;23.404;2023-04-15T00:36:45;6.00;;;3.37;;
11675;SDS011;5894;42.768;23.404;2023-04-15T00:39:12;6.30;;;3.97;;
11675;SDS011;5894;42.768;23.404;2023-04-15T00:41:41;7.00;;;3.77;;
11675;SDS011;5894;42.768;23.404;2023-04-15T00:44:08;6.73;;;3.67;;
11675;SDS011;5894;42.768;23.404;2023-04-15T00:46:35;5.33;;;3.40;;
11675;SDS011;5894;42.768;23.404;2023-04-15T00:49:04;7.57;;;4.10;;
11675;SDS011;5894;42.768;23.404;2023-04-15T00:51:32;9.33;;;4.10;;
11675;SDS011;5894;42.768;23.404;2023-04-15T00:54:02;6.97;;;4.03;;
11675;SDS011;5894;42.768;23.404;2023-04-15T00:56:29;8.27;;;4.30;;
11675;SDS011;5894;42.768;23.404;2023-04-15T00:58:57;6.17;;;4.10;;
11675;SDS011;5894;42.768;23.404;2023-04-15T01:01:25;8.00;;;4.70;;
11675;SDS011;5894;42.768;23.404;2023-04-15T01:03:54;5.53;;;3.90;;
11675;SDS011;5894;42.768;23.404;2023-04-15T01:06:21;7.73;;;4.20;;
11675;SDS011;5894;42.768;23.404;2023-04-15T01:08:48;8.87;;;4.40;;
11675;SDS011;5894;42.768;23.404;2023-04-15T01:11:17;7.30;;;4.30;;
11675;SDS011;5894;42.768;23.404;2023-04-15T01:13:44;8.07;;;4.30;;
11675;SDS011;5894;42.768;23.404;2023-04-15T01:16:11;8.37;;;5.43;;
11675;SDS011;5894;42.768;23.404;2023-04-15T01:18:41;9.67;;;6.33;;
11675;SDS011;5894;42.768;23.404;2023-04-15T01:21:08;22.37;;;9.97;;
11675;SDS011;5894;42.768;23.404;2023-04-15T01:23:35;18.53;;;9.37;;
11675;SDS011;5894;42.768;23.404;2023-04-15T01:26:05;17.23;;;8.57;;
11675;SDS011;5894;42.768;23.404;2023-04-15T01:28:33;37.80;;;16.97;;
11675;SDS011;5894;42.768;23.404;2023-04-15T01:31:06;36.80;;;16.80;;
11675;SDS011;5894;42.768;23.404;2023-04-15T01:33:37;28.00;;;11.97;;
11675;SDS011;5894;42.768;23.404;2023-04-15T01:36:05;13.73;;;7.00;;
11675;SDS011;5894;42.768;23.404;2023-04-15T01:38:34;8.77;;;5.17;;
11675;SDS011;5894;42.768;23.404;2023-04-15T01:41:02;6.67;;;4.83;;
11675;SDS011;5894;42.768;23.404;2023-04-15T01:43:33;7.40;;;5.10;;
11675;SDS011;5894;42.768;23.404;2023-04-15T01:46:00;25.10;;;10.73;;
11675;SDS011;5894;42.768;23.404;2023-04-15T01:48:27;125.57;;;42.13;;
11675;SDS011;5894;42.768;23.404;2023-04-15T01:50:55;54.03;;;23.03;;
11675;SDS011;5894;42.768;23.404;2023-04-15T01:53:22;45.97;;;18.50;;
11675;SDS011;5894;42.768;23.404;2023-04-15T01:55:50;25.33;;;11.43;;
11675;SDS011;5894;42.768;23.404;2023-04-15T01:58:17;11.20;;;5.83;;
11675;SDS011;5894;42.768;23.404;2023-04-15T02:00:46;34.43;;;14.10;;
11675;SDS011;5894;42.768;23.404;2023-04-15T02:03:12;28.03;;;11.57;;
11675;SDS011;5894;42.768;23.404;2023-04-15T02:05:39;25.47;;;10.53;;
11675;SDS011;5894;42.768;23.404;2023-04-15T02:08:06;12.97;;;7.30;;
11675;SDS011;5894;42.768;23.404;2023-04-15T02:10:36;65.40;;;24.67;;
11675;SDS011;5894;42.768;23.404;2023-04-15T02:13:04;62.07;;;22.07;;
11675;SDS011;5894;42.768;23.404;2023-04-15T02:15:31;13.73;;;7.33;;
11675;SDS011;5894;42.768;23.404;2023-04-15T02:18:01;9.17;;;6.30;;
11675;SDS011;5894;42.768;23.404;2023-04-15T02:20:27;15.07;;;7.80;;
11675;SDS011;5894;42.768;23.404;2023-04-15T02:22:56;8.27;;;5.23;;
11675;SDS011;5894;42.768;23.404;2023-04-15T02:25:24;8.67;;;5.03;;
11675;SDS011;5894;42.768;23.404;2023-04-15T02:27:50;9.43;;;5.40;;
11675;SDS011;5894;42.768;23.404;2023-04-15T02:30:17;9.80;;;6.00;;
11675;SDS011;5894;42.768;23.404;2023-04-15T02:32:44;8.67;;;5.73;;
11675;SDS011;5894;42.768;23.404;2023-04-15T02:35:13;10.57;;;5.50;;
11675;SDS011;5894;42.768;23.404;2023-04-15T02:37:40;8.00;;;5.10;;
11675;SDS011;5894;42.768;23.404;2023-04-15T02:40:11;8.53;;;5.00;;
11675;SDS011;5894;42.768;23.404;2023-04-15T02:42:38;8.90;;;5.53;;
11675;SDS011;5894;42.768;23.404;2023-04-15T02:45:08;8.03;;;5.43;;
11675;SDS011;5894;42.768;23.404;2023-04-15T02:47:36;8.07;;;5.13;;
11675;SDS011;5894;42.768;23.404;2023-04-15T02:50:06;8.30;;;5.50;;
11675;SDS011;5894;42.768;23.404;2023-04-15T02:52:38;6.13;;;4.67;;
11675;SDS011;5894;42.768;23.404;2023-04-15T02:55:06;6.93;;;5.20;;
11675;SDS011;5894;42.768;23.404;2023-04-15T02:57:36;5.13;;;3.43;;
11675;SDS011;5894;42.768;23.404;2023-04-15T03:00:06;5.17;;;3.90;;
11675;SDS011;5894;42.768;23.404;2023-04-15T03:02:38;6.47;;;4.30;;
11675;SDS011;5894;42.768;23.404;2023-04-15T03:05:09;6.10;;;4.50;;
11675;SDS011;5894;42.768;23.404;2023-04-15T03:07:40;6.93;;;5.33;;
11675;SDS011;5894;42.768;23.404;2023-04-15T03:10:07;16.80;;;6.63;;
11675;SDS011;5894;42.768;23.404;2023-04-15T03:12:35;15.70;;;6.17;;
11675;SDS011;5894;42.768;23.404;2023-04-15T03:15:03;9.93;;;6.80;;
11675;SDS011;5894;42.768;23.404;2023-04-15T03:17:35;8.90;;;6.40;;
11675;SDS011;5894;42.768;23.404;2023-04-15T03:20:02;9.63;;;7.23;;
11675;SDS011;5894;42.768;23.404;2023-04-15T03:22:31;12.40;;;8.03;;
11675;SDS011;5894;42.768;23.404;2023-04-15T03:25:00;10.70;;;7.93;;
11675;SDS011;5894;42.768;23.404;2023-04-15T03:27:27;12.10;;;7.23;;
11675;SDS011;5894;42.768;23.404;2023-04-15T03:29:57;16.87;;;8.30;;
11675;SDS011;5894;42.768;23.404;2023-04-15T03:32:25;18.93;;;10.23;;
11675;SDS011;5894;42.768;23.404;2023-04-15T03:34:52;17.50;;;9.47;;
11675;SDS011;5894;42.768;23.404;2023-04-15T03:37:19;17.47;;;9.57;;
11675;SDS011;5894;42.768;23.404;2023-04-15T03:39:46;19.50;;;12.83;;
11675;SDS011;5894;42.768;23.404;2023-04-15T03:42:14;25.80;;;17.63;;
11675;SDS011;5894;42.768;23.404;2023-04-15T03:44:40;19.70;;;12.07;;
11675;SDS011;5894;42.768;23.404;2023-04-15T03:47:07;10.63;;;7.10;;
11675;SDS011;5894;42.768;23.404;2023-04-15T03:49:34;7.63;;;4.97;;
11675;SDS011;5894;42.768;23.404;2023-04-15T03:52:01;6.77;;;4.43;;
11675;SDS011;5894;42.768;23.404;2023-04-15T03:54:28;6.40;;;4.10;;
11675;SDS011;5894;42.768;23.404;2023-04-15T03:56:55;5.20;;;3.57;;
11675;SDS011;5894;42.768;23.404;2023-04-15T03:59:23;6.17;;;4.23;;
11675;SDS011;5894;42.768;23.404;2023-04-15T04:01:50;7.50;;;4.50;;
11675;SDS011;5894;42.768;23.404;2023-04-15T04:04:17;6.83;;;4.37;;
11675;SDS011;5894;42.768;23.404;2023-04-15T04:06:43;6.23;;;4.33;;
11675;SDS011;5894;42.768;23.404;2023-04-15T04:09:10;6.37;;;4.70;;
11675;SDS011;5894;42.768;23.404;2023-04-15T04:11:37;7.20;;;4.53;;
11675;SDS011;5894;42.768;23.404;2023-04-15T04:14:04;7.33;;;5.27;;
11675;SDS011;5894;42.768;23.404;2023-04-15T04:16:32;10.70;;;6.27;;
11675;SDS011;5894;42.768;23.404;2023-04-15T04:18:59;7.97;;;5.30;;
11675;SDS011;5894;42.768;23.404;2023-04-15T04:21:26;7.13;;;4.70;;
11675;SDS011;5894;42.768;23.404;2023-04-15T04:23:53;7.23;;;4.63;;
11675;SDS011;5894;42.768;23.404;2023-04-15T04:26:20;6.37;;;4.80;;
11675;SDS011;5894;42.768;23.404;2023-04-15T04:28:48;10.97;;;5.43;;
11675;SDS011;5894;42.768;23.404;2023-04-15T04:31:14;12.10;;;6.33;;
11675;SDS011;5894;42.768;23.404;2023-04-15T04:33:43;10.90;;;7.07;;
11675;SDS011;5894;42.768;23.404;2023-04-15T04:36:10;14.57;;;10.17;;
11675;SDS011;5894;42.768;23.404;2023-04-15T04:38:36;16.40;;;9.70;;
11675;SDS011;5894;42.768;23.404;2023-04-15T04:41:03;13.77;;;9.70;;
11675;SDS011;5894;42.768;23.404;2023-04-15T04:43:30;17.77;;;10.90;;
11675;SDS011;5894;42.768;23.404;2023-04-15T04:45:57;16.57;;;10.63;;
11675;SDS011;5894;42.768;23.404;2023-04-15T04:48:24;14.27;;;8.50;;
11675;SDS011;5894;42.768;23.404;2023-04-15T04:50:52;11.33;;;7.97;;
11675;SDS011;5894;42.768;23.404;2023-04-15T04:53:19;11.70;;;7.63;;
11675;SDS011;5894;42.768;23.404;2023-04-15T04:55:46;12.50;;;7.50;;
11675;SDS011;5894;42.768;23.404;2023-04-15T04:58:13;10.27;;;6.90;;
11675;SDS011;5894;42.768;23.404;2023-04-15T05:00:40;9.70;;;6.07;;
11675;SDS011;5894;42.768;23.404;2023-04-15T05:03:07;11.17;;;6.77;;
11675;SDS011;5894;42.768;23.404;2023-04-15T05:05:34;9.53;;;5.47;;
11675;SDS011;5894;42.768;23.404;2023-04-15T05:08:05;7.67;;;4.90;;
11675;SDS011;5894;42.768;23.404;2023-04-15T05:10:32;6.47;;;4.80;;
11675;SDS011;5894;42.768;23.404;2023-04-15T05:12:58;6.13;;;4.23;;
11675;SDS011;5894;42.768;23.404;2023-04-15T05:15:25;4.53;;;4.00;;
11675;SDS011;5894;42.768;23.404;2023-04-15T05:17:52;6.03;;;3.93;;
11675;SDS011;5894;42.768;23.404;2023-04-15T05:20:19;4.70;;;3.57;;
11675;SDS011;5894;42.768;23.404;2023-04-15T05:22:46;4.83;;;3.10;;
11675;SDS011;5894;42.768;23.404;2023-04-15T05:25:14;5.33;;;3.93;;
11675;SDS011;5894;42.768;23.404;2023-04-15T05:27:41;4.20;;;3.60;;
11675;SDS011;5894;42.768;23.404;2023-04-15T05:30:08;5.27;;;3.37;;
11675;SDS011;5894;42.768;23.404;2023-04-15T05:32:35;4.43;;;3.20;;
11675;SDS011;5894;42.768;23.404;2023-04-15T05:35:02;5.93;;;3.57;;
11675;SDS011;5894;42.768;23.404;2023-04-15T05:37:29;5.90;;;3.80;;
11675;SDS011;5894;42.768;23.404;2023-04-15T05:39:55;12.03;;;5.87;;
11675;SDS011;5894;42.768;23.404;2023-04-15T05:42:23;5.37;;;3.67;;
11675;SDS011;5894;42.768;23.404;2023-04-15T05:44:50;6.53;;;4.10;;
11675;SDS011;5894;42.768;23.404;2023-04-15T05:47:17;5.40;;;3.90;;
11675;SDS011;5894;42.768;23.404;2023-04-15T05:49:44;6.73;;;3.70;;
11675;SDS011;5894;42.768;23.404;2023-04-15T05:52:11;6.40;;;3.70;;
11675;SDS011;5894;42.768;23.404;2023-04-15T05:54:37;8.63;;;3.90;;
11675;SDS011;5894;42.768;23.404;2023-04-15T05:57:04;7.60;;;3.77;;
11675;SDS011;5894;42.768;23.404;2023-04-15T05:59:33;8.47;;;5.73;;
11675;SDS011;5894;42.768;23.404;2023-04-15T06:02:00;7.07;;;4.57;;
11675;SDS011;5894;42.768;23.404;2023-04-15T06:04:27;10.20;;;6.80;;
11675;SDS011;5894;42.768;23.404;2023-04-15T06:06:54;7.73;;;4.00;;
11675;SDS011;5894;42.768;23.404;2023-04-15T06:09:21;6.93;;;5.43;;
11675;SDS011;5894;42.768;23.404;2023-04-15T06:11:48;6.60;;;4.40;;
11675;SDS011;5894;42.768;23.404;2023-04-15T06:14:14;4.73;;;3.50;;
11675;SDS011;5894;42.768;23.404;2023-04-15T06:16:43;7.90;;;5.00;;
11675;SDS011;5894;42.768;23.404;2023-04-15T06:19:09;8.70;;;5.33;;
11675;SDS011;5894;42.768;23.404;2023-04-15T06:21:36;5.03;;;3.53;;
11675;SDS011;5894;42.768;23.404;2023-04-15T06:24:03;9.10;;;6.20;;
11675;SDS011;5894;42.768;23.404;2023-04-15T06:26:30;6.77;;;4.27;;
11675;SDS011;5894;42.768;23.404;2023-04-15T06:28:57;5.63;;;4.00;;
11675;SDS011;5894;42.768;23.404;2023-04-15T06:31:24;8.00;;;4.03;;
11675;SDS011;5894;42.768;23.404;2023-04-15T06:33:53;6.03;;;4.43;;
11675;SDS011;5894;42.768;23.404;2023-04-15T06:36:19;6.90;;;5.20;;
11675;SDS011;5894;42.768;23.404;2023-04-15T06:38:46;8.20;;;4.90;;
11675;SDS011;5894;42.768;23.404;2023-04-15T06:41:13;9.07;;;4.90;;
11675;SDS011;5894;42.768;23.404;2023-04-15T06:43:40;17.23;;;5.00;;
11675;SDS011;5894;42.768;23.404;2023-04-15T06:46:07;9.07;;;4.77;;
11675;SDS011;5894;42.768;23.404;2023-04-15T06:48:35;8.03;;;4.70;;
11675;SDS011;5894;42.768;23.404;2023-04-15T06:51:03;6.73;;;4.70;;
11675;SDS011;5894;42.768;23.404;2023-04-15T06:53:30;6.10;;;4.57;;
11675;SDS011;5894;42.768;23.404;2023-04-15T06:55:57;5.22;;;4.43;;
11675;SDS011;5894;42.768;23.404;2023-04-15T06:58:26;7.22;;;4.57;;
11675;SDS011;5894;42.768;23.404;2023-04-15T07:00:53;10.40;;;5.18;;
11675;SDS011;5894;42.768;23.404;2023-04-15T07:03:19;9.18;;;4.53;;
11675;SDS011;5894;42.768;23.404;2023-04-15T07:05:46;6.00;;;4.47;;
11675;SDS011;5894;42.768;23.404;2023-04-15T07:08:14;7.55;;;4.95;;
11675;SDS011;5894;42.768;23.404;2023-04-15T07:10:41;7.32;;;4.57;;
11675;SDS011;5894;42.768;23.404;2023-04-15T07:13:08;5.90;;;4.20;;
11675;SDS011;5894;42.768;23.404;2023-04-15T07:15:35;6.13;;;4.18;;
11675;SDS011;5894;42.768;23.404;2023-04-15T07:18:02;6.70;;;4.80;;
11675;SDS011;5894;42.768;23.404;2023-04-15T07:20:29;7.88;;;3.45;;
11675;SDS011;5894;42.768;23.404;2023-04-15T07:22:56;6.72;;;3.22;;
11675;SDS011;5894;42.768;23.404;2023-04-15T07:25:24;8.45;;;3.65;;
11675;SDS011;5894;42.768;23.404;2023-04-15T07:27:51;8.70;;;3.25;;
11675;SDS011;5894;42.768;23.404;2023-04-15T07:30:18;6.55;;;3.05;;
11675;SDS011;5894;42.768;23.404;2023-04-15T07:32:45;6.72;;;3.63;;
11675;SDS011;5894;42.768;23.404;2023-04-15T07:35:12;4.88;;;3.10;;
11675;SDS011;5894;42.768;23.404;2023-04-15T07:37:38;5.20;;;3.17;;
11675;SDS011;5894;42.768;23.404;2023-04-15T07:40:07;6.63;;;3.67;;
11675;SDS011;5894;42.768;23.404;2023-04-15T07:42:37;6.55;;;3.75;;
11675;SDS011;5894;42.768;23.404;2023-04-15T07:45:04;7.20;;;3.35;;
11675;SDS011;5894;42.768;23.404;2023-04-15T07:47:31;7.57;;;3.15;;
11675;SDS011;5894;42.768;23.404;2023-04-15T07:49:58;5.82;;;3.25;;
11675;SDS011;5894;42.768;23.404;2023-04-15T07:52:26;6.63;;;3.60;;
11675;SDS011;5894;42.768;23.404;2023-04-15T07:54:53;5.40;;;3.00;;
11675;SDS011;5894;42.768;23.404;2023-04-15T07:57:19;8.30;;;5.60;;
11675;SDS011;5894;42.768;23.404;2023-04-15T07:59:48;5.28;;;3.20;;
11675;SDS011;5894;42.768;23.404;2023-04-15T08:02:14;4.50;;;2.83;;
11675;SDS011;5894;42.768;23.404;2023-04-15T08:04:41;3.78;;;2.70;;
11675;SDS011;5894;42.768;23.404;2023-04-15T08:07:08;6.78;;;2.80;;
11675;SDS011;5894;42.768;23.404;2023-04-15T08:09:35;5.07;;;2.83;;
11675;SDS011;5894;42.768;23.404;2023-04-15T08:12:02;6.18;;;2.55;;
11675;SDS011;5894;42.768;23.404;2023-04-15T08:14:29;9.05;;;3.10;;
11675;SDS011;5894;42.768;23.404;2023-04-15T08:16:57;7.60;;;3.10;;
11675;SDS011;5894;42.768;23.404;2023-04-15T08:19:24;5.47;;;2.90;;
11675;SDS011;5894;42.768;23.404;2023-04-15T08:21:50;6.32;;;2.85;;
11675;SDS011;5894;42.768;23.404;2023-04-15T08:24:17;7.25;;;2.65;;
11675;SDS011;5894;42.768;23.404;2023-04-15T08:26:44;8.77;;;3.00;;
11675;SDS011;5894;42.768;23.404;2023-04-15T08:29:11;4.40;;;3.00;;
11675;SDS011;5894;42.768;23.404;2023-04-15T08:31:38;6.00;;;3.03;;
11675;SDS011;5894;42.768;23.404;2023-04-15T08:34:06;7.13;;;2.80;;
11675;SDS011;5894;42.768;23.404;2023-04-15T08:36:33;4.90;;;3.00;;
11675;SDS011;5894;42.768;23.404;2023-04-15T08:39:00;7.93;;;2.67;;
11675;SDS011;5894;42.768;23.404;2023-04-15T08:41:30;5.22;;;2.28;;
11675;SDS011;5894;42.768;23.404;2023-04-15T08:44:05;3.65;;;2.40;;
11675;SDS011;5894;42.768;23.404;2023-04-15T08:46:31;3.95;;;2.65;;
11675;SDS011;5894;42.768;23.404;2023-04-15T08:48:59;4.28;;;2.20;;
11675;SDS011;5894;42.768;23.404;2023-04-15T08:51:30;6.22;;;2.60;;
11675;SDS011;5894;42.768;23.404;2023-04-15T08:53:58;8.23;;;2.47;;
11675;SDS011;5894;42.768;23.404;2023-04-15T08:56:26;16.35;;;5.82;;
11675;SDS011;5894;42.768;23.404;2023-04-15T08:58:56;15.88;;;2.15;;
11675;SDS011;5894;42.768;23.404;2023-04-15T09:01:24;5.85;;;2.17;;
11675;SDS011;5894;42.768;23.404;2023-04-15T09:03:51;3.63;;;1.63;;
11675;SDS011;5894;42.768;23.404;2023-04-15T09:06:19;3.40;;;1.60;;
11675;SDS011;5894;42.768;23.404;2023-04-15T09:08:48;3.25;;;1.70;;
11675;SDS011;5894;42.768;23.404;2023-04-15T09:11:16;2.40;;;1.20;;
11675;SDS011;5894;42.768;23.404;2023-04-15T09:13:43;2.90;;;1.23;;
11675;SDS011;5894;42.768;23.404;2023-04-15T09:16:10;4.60;;;1.27;;
11675;SDS011;5894;42.768;23.404;2023-04-15T09:18:37;2.83;;;1.50;;
11675;SDS011;5894;42.768;23.404;2023-04-15T09:21:06;4.07;;;1.52;;
11675;SDS011;5894;42.768;23.404;2023-04-15T09:23:35;2.83;;;1.55;;
11675;SDS011;5894;42.768;23.404;2023-04-15T09:26:05;2.30;;;1.25;;
11675;SDS011;5894;42.768;23.404;2023-04-15T09:28:32;3.83;;;1.00;;
11675;SDS011;5894;42.768;23.404;2023-04-15T09:31:06;2.47;;;0.90;;
11675;SDS011;5894;42.768;23.404;2023-04-15T09:33:34;4.72;;;1.42;;
11675;SDS011;5894;42.768;23.404;2023-04-15T09:36:01;2.30;;;1.40;;
11675;SDS011;5894;42.768;23.404;2023-04-15T09:38:30;6.65;;;1.92;;
11675;SDS011;5894;42.768;23.404;2023-04-15T09:40:57;2.47;;;1.85;;
11675;SDS011;5894;42.768;23.404;2023-04-15T09:43:37;3.45;;;1.45;;
11675;SDS011;5894;42.768;23.404;2023-04-15T09:46:04;4.15;;;1.95;;
11675;SDS011;5894;42.768;23.404;2023-04-15T09:48:31;2.60;;;1.35;;
11675;SDS011;5894;42.768;23.404;2023-04-15T09:50:58;3.90;;;2.20;;
11675;SDS011;5894;42.768;23.404;2023-04-15T09:53:26;1.95;;;1.20;;
11675;SDS011;5894;42.768;23.404;2023-04-15T09:55:54;2.95;;;1.30;;
11675;SDS011;5894;42.768;23.404;2023-04-15T09:58:22;2.42;;;1.30;;
11675;SDS011;5894;42.768;23.404;2023-04-15T10:00:52;1.30;;;1.05;;
11675;SDS011;5894;42.768;23.404;2023-04-15T10:05:52;3.08;;;1.13;;
11675;SDS011;5894;42.768;23.404;2023-04-15T10:08:20;5.10;;;1.50;;
11675;SDS011;5894;42.768;23.404;2023-04-15T10:10:48;1.20;;;1.10;;
11675;SDS011;5894;42.768;23.404;2023-04-15T10:13:19;4.78;;;2.40;;
11675;SDS011;5894;42.768;23.404;2023-04-15T10:15:49;4.05;;;2.45;;
11675;SDS011;5894;42.768;23.404;2023-04-15T10:18:22;3.40;;;1.55;;
11675;SDS011;5894;42.768;23.404;2023-04-15T10:20:51;2.15;;;1.20;;
11675;SDS011;5894;42.768;23.404;2023-04-15T10:23:18;2.88;;;1.20;;
11675;SDS011;5894;42.768;23.404;2023-04-15T10:25:46;4.63;;;1.20;;
11675;SDS011;5894;42.768;23.404;2023-04-15T10:28:14;2.72;;;1.15;;
11675;SDS011;5894;42.768;23.404;2023-04-15T10:30:41;2.00;;;1.27;;
11675;SDS011;5894;42.768;23.404;2023-04-15T10:33:09;2.88;;;1.20;;
11675;SDS011;5894;42.768;23.404;2023-04-15T10:35:38;4.13;;;1.20;;
11675;SDS011;5894;42.768;23.404;2023-04-15T10:41:12;2.42;;;1.42;;
11675;SDS011;5894;42.768;23.404;2023-04-15T10:43:47;2.58;;;1.13;;
11675;SDS011;5894;42.768;23.404;2023-04-15T10:46:17;1.20;;;1.00;;
11675;SDS011;5894;42.768;23.404;2023-04-15T10:48:48;1.92;;;1.05;;
11675;SDS011;5894;42.768;23.404;2023-04-15T10:51:27;1.55;;;1.08;;
11675;SDS011;5894;42.768;23.404;2023-04-15T10:53:56;2.50;;;1.02;;
11675;SDS011;5894;42.768;23.404;2023-04-15T10:56:24;2.45;;;1.20;;
11675;SDS011;5894;42.768;23.404;2023-04-15T10:58:51;1.95;;;1.10;;
11675;SDS011;5894;42.768;23.404;2023-04-15T11:01:18;3.15;;;1.23;;
11675;SDS011;5894;42.768;23.404;2023-04-15T11:03:47;1.60;;;1.00;;
11675;SDS011;5894;42.768;23.404;2023-04-15T11:06:15;4.68;;;1.40;;
11675;SDS011;5894;42.768;23.404;2023-04-15T11:08:56;4.55;;;1.13;;
11675;SDS011;5894;42.768;23.404;2023-04-15T11:14:32;3.67;;;1.23;;
11675;SDS011;5894;42.768;23.404;2023-04-15T11:17:00;2.35;;;1.10;;
11675;SDS011;5894;42.768;23.404;2023-04-15T11:19:34;2.30;;;1.20;;
11675;SDS011;5894;42.768;23.404;2023-04-15T11:22:06;1.25;;;0.90;;
11675;SDS011;5894;42.768;23.404;2023-04-15T11:24:35;3.95;;;1.30;;
11675;SDS011;5894;42.768;23.404;2023-04-15T11:27:02;3.13;;;1.10;;
11675;SDS011;5894;42.768;23.404;2023-04-15T11:29:29;2.20;;;1.10;;
11675;SDS011;5894;42.768;23.404;2023-04-15T11:32:05;4.05;;;0.93;;
11675;SDS011;5894;42.768;23.404;2023-04-15T11:34:34;2.10;;;1.10;;
11675;SDS011;5894;42.768;23.404;2023-04-15T11:37:02;1.65;;;1.02;;
11675;SDS011;5894;42.768;23.404;2023-04-15T11:39:30;1.80;;;0.80;;
11675;SDS011;5894;42.768;23.404;2023-04-15T11:41:58;1.35;;;1.00;;
11675;SDS011;5894;42.768;23.404;2023-04-15T11:44:25;3.95;;;1.52;;
11675;SDS011;5894;42.768;23.404;2023-04-15T11:46:53;1.98;;;1.50;;
11675;SDS011;5894;42.768;23.404;2023-04-15T11:49:27;1.10;;;1.00;;
11675;SDS011;5894;42.768;23.404;2023-04-15T11:51:54;3.15;;;1.20;;
11675;SDS011;5894;42.768;23.404;2023-04-15T11:54:21;2.20;;;1.02;;
11675;SDS011;5894;42.768;23.404;2023-04-15T11:56:51;2.40;;;1.10;;
11675;SDS011;5894;42.768;23.404;2023-04-15T11:59:20;2.58;;;1.08;;
11675;SDS011;5894;42.768;23.404;2023-04-15T12:01:46;2.50;;;1.17;;
11675;SDS011;5894;42.768;23.404;2023-04-15T12:04:14;2.00;;;0.93;;
11675;SDS011;5894;42.768;23.404;2023-04-15T12:06:44;1.35;;;1.00;;
11675;SDS011;5894;42.768;23.404;2023-04-15T12:09:11;3.13;;;1.48;;
11675;SDS011;5894;42.768;23.404;2023-04-15T12:11:40;2.08;;;1.20;;
11675;SDS011;5894;42.768;23.404;2023-04-15T12:14:10;1.73;;;1.00;;
11675;SDS011;5894;42.768;23.404;2023-04-15T12:16:40;2.80;;;1.00;;
11675;SDS011;5894;42.768;23.404;2023-04-15T12:19:09;2.05;;;1.20;;
11675;SDS011;5894;42.768;23.404;2023-04-15T12:21:38;2.95;;;1.13;;
11675;SDS011;5894;42.768;23.404;2023-04-15T12:24:07;2.20;;;1.02;;
11675;SDS011;5894;42.768;23.404;2023-04-15T12:26:36;1.92;;;0.95;;
11675;SDS011;5894;42.768;23.404;2023-04-15T12:29:04;4.10;;;1.38;;
11675;SDS011;5894;42.768;23.404;2023-04-15T12:31:32;1.27;;;0.95;;
11675;SDS011;5894;42.768;23.404;2023-04-15T12:34:02;2.92;;;1.08;;
11675;SDS011;5894;42.768;23.404;2023-04-15T12:36:33;2.80;;;1.10;;
11675;SDS011;5894;42.768;23.404;2023-04-15T12:39:01;1.85;;;1.10;;
11675;SDS011;5894;42.768;23.404;2023-04-15T12:41:29;2.25;;;0.90;;
11675;SDS011;5894;42.768;23.404;2023-04-15T12:43:56;2.20;;;1.10;;
11675;SDS011;5894;42.768;23.404;2023-04-15T12:46:23;2.25;;;1.20;;
11675;SDS011;5894;42.768;23.404;2023-04-15T12:48:50;2.85;;;1.10;;
11675;SDS011;5894;42.768;23.404;2023-04-15T12:51:18;4.70;;;1.58;;
11675;SDS011;5894;42.768;23.404;2023-04-15T12:53:46;4.10;;;1.80;;
11675;SDS011;5894;42.768;23.404;2023-04-15T12:56:15;2.60;;;1.05;;
11675;SDS011;5894;42.768;23.404;2023-04-15T12:58:42;2.22;;;1.13;;
11675;SDS011;5894;42.768;23.404;2023-04-15T13:01:09;1.70;;;0.98;;
11675;SDS011;5894;42.768;23.404;2023-04-15T13:03:36;1.27;;;0.90;;
11675;SDS011;5894;42.768;23.404;2023-04-15T13:06:03;2.22;;;0.85;;
11675;SDS011;5894;42.768;23.404;2023-04-15T13:08:31;2.78;;;1.20;;
11675;SDS011;5894;42.768;23.404;2023-04-15T13:10:58;3.08;;;1.33;;
11675;SDS011;5894;42.768;23.404;2023-04-15T13:13:27;3.38;;;1.02;;
11675;SDS011;5894;42.768;23.404;2023-04-15T13:15:56;2.28;;;1.05;;
11675;SDS011;5894;42.768;23.404;2023-04-15T13:18:23;3.90;;;1.30;;
11675;SDS011;5894;42.768;23.404;2023-04-15T13:20:50;3.42;;;1.30;;
11675;SDS011;5894;42.768;23.404;2023-04-15T13:23:17;3.25;;;1.00;;
11675;SDS011;5894;42.768;23.404;2023-04-15T13:25:45;4.43;;;1.20;;
11675;SDS011;5894;42.768;23.404;2023-04-15T13:28:12;2.05;;;1.35;;
11675;SDS011;5894;42.768;23.404;2023-04-15T13:30:39;2.10;;;1.08;;
11675;SDS011;5894;42.768;23.404;2023-04-15T13:33:06;2.97;;;1.20;;
11675;SDS011;5894;42.768;23.404;2023-04-15T13:35:32;157.27;;;10.85;;
11675;SDS011;5894;42.768;23.404;2023-04-15T13:37:59;28.77;;;4.40;;
11675;SDS011;5894;42.768;23.404;2023-04-15T13:40:26;22.13;;;3.22;;
11675;SDS011;5894;42.768;23.404;2023-04-15T13:42:54;89.45;;;7.72;;
11675;SDS011;5894;42.768;23.404;2023-04-15T13:45:22;54.63;;;5.43;;
11675;SDS011;5894;42.768;23.404;2023-04-15T13:47:49;5.53;;;1.38;;
11675;SDS011;5894;42.768;23.404;2023-04-15T13:50:16;3.70;;;1.15;;
11675;SDS011;5894;42.768;23.404;2023-04-15T13:52:43;2.42;;;0.90;;
11675;SDS011;5894;42.768;23.404;2023-04-15T13:55:10;2.10;;;1.10;;
11675;SDS011;5894;42.768;23.404;2023-04-15T13:57:36;2.63;;;1.38;;
11675;SDS011;5894;42.768;23.404;2023-04-15T14:00:05;5.15;;;1.23;;
11675;SDS011;5894;42.768;23.404;2023-04-15T14:02:33;16.08;;;5.28;;
11675;SDS011;5894;42.768;23.404;2023-04-15T14:05:00;2.20;;;1.00;;
11675;SDS011;5894;42.768;23.404;2023-04-15T14:07:27;1.17;;;0.95;;
11675;SDS011;5894;42.768;23.404;2023-04-15T14:09:55;3.55;;;1.17;;
11675;SDS011;5894;42.768;23.404;2023-04-15T14:12:22;3.17;;;1.42;;
11675;SDS011;5894;42.768;23.404;2023-04-15T14:14:48;1.58;;;1.30;;
11675;SDS011;5894;42.768;23.404;2023-04-15T14:17:16;3.40;;;1.77;;
11675;SDS011;5894;42.768;23.404;2023-04-15T14:19:43;1.90;;;1.23;;
11675;SDS011;5894;42.768;23.404;2023-04-15T14:22:10;3.00;;;1.30;;
11675;SDS011;5894;42.768;23.404;2023-04-15T14:24:37;2.00;;;1.00;;
11675;SDS011;5894;42.768;23.404;2023-04-15T14:27:05;1.40;;;0.85;;
11675;SDS011;5894;42.768;23.404;2023-04-15T14:29:32;2.67;;;1.23;;
11675;SDS011;5894;42.768;23.404;2023-04-15T14:31:59;4.13;;;1.00;;
11675;SDS011;5894;42.768;23.404;2023-04-15T14:34:27;1.73;;;1.25;;
11675;SDS011;5894;42.768;23.404;2023-04-15T14:36:54;5.75;;;1.00;;
11675;SDS011;5894;42.768;23.404;2023-04-15T14:39:21;1.35;;;0.82;;
11675;SDS011;5894;42.768;23.404;2023-04-15T14:41:48;2.08;;;0.70;;
11675;SDS011;5894;42.768;23.404;2023-04-15T14:44:15;2.15;;;1.15;;
11675;SDS011;5894;42.768;23.404;2023-04-15T14:46:42;2.40;;;1.05;;
11675;SDS011;5894;42.768;23.404;2023-04-15T14:49:08;2.22;;;0.85;;
11675;SDS011;5894;42.768;23.404;2023-04-15T14:51:36;3.53;;;1.00;;
11675;SDS011;5894;42.768;23.404;2023-04-15T14:54:03;1.48;;;1.00;;
11675;SDS011;5894;42.768;23.404;2023-04-15T14:56:30;3.15;;;1.35;;
11675;SDS011;5894;42.768;23.404;2023-04-15T14:59:03;5.07;;;3.10;;